createdAt,value
2019-04-04T00:54:28.790Z,5.25
2019-04-04T01:26:01.368Z,5.97
2019-04-04T01:34:24.051Z,6.75
2019-04-04T01:39:49.687Z,5.53
2019-04-04T01:42:21.379Z,6.58
2019-04-04T01:50:40.496Z,6.37
2019-04-04T01:56:09.479Z,7.20
2019-04-04T02:01:35.850Z,5.50
2019-04-04T02:04:13.685Z,5.45
2019-04-04T02:24:02.087Z,6.85
2019-04-04T02:26:36.613Z,8.53
2019-04-04T02:32:01.751Z,6.53
2019-04-04T03:16:04.111Z,8.63
2019-04-04T03:21:39.105Z,7.35
2019-04-04T03:24:20.106Z,8.58
2019-04-04T03:43:22.104Z,10.38
2019-04-04T03:46:10.428Z,9.05
2019-04-04T03:51:37.110Z,8.43
2019-04-04T03:54:07.164Z,9.25
2019-04-04T03:56:39.217Z,9.88
2019-04-04T03:59:06.261Z,9.73
2019-04-04T04:01:34.961Z,7.70
2019-04-04T04:04:03.652Z,7.55
2019-04-04T04:06:33.184Z,8.53
2019-04-04T04:09:08.259Z,7.92
2019-04-04T10:06:59.914Z,19.87
2019-04-04T10:09:32.830Z,18.65
2019-04-04T10:12:05.743Z,19.27
2019-04-04T11:30:53.941Z,17.87
2019-04-04T14:28:07.810Z,23.12
2019-04-04T15:27:53.639Z,35.38
2019-04-04T15:33:18.976Z,39.83
2019-04-04T15:35:56.359Z,34.55
2019-04-04T15:38:33.712Z,35.13
2019-04-04T15:43:55.942Z,38.10
2019-04-04T15:46:30.442Z,34.92
2019-04-04T15:49:05.444Z,43.42
2019-04-04T15:51:44.815Z,41.63
2019-04-04T15:54:17.722Z,41.30
2019-04-04T15:56:59.249Z,39.63
2019-04-04T16:05:21.593Z,43.33
2019-04-04T16:10:51.939Z,43.50
2019-04-04T16:16:21.766Z,47.27
2019-04-04T16:18:57.015Z,45.58
2019-04-04T16:21:30.842Z,51.50
2019-04-04T16:24:16.434Z,45.80
2019-04-04T16:29:44.280Z,45.40
2019-04-04T16:32:15.212Z,45.85
2019-04-04T16:37:36.210Z,42.83
2019-04-04T16:40:12.680Z,46.73
2019-04-04T16:42:50.147Z,41.70
2019-04-04T16:45:24.533Z,41.93
2019-04-04T16:47:55.116Z,40.30
2019-04-04T16:50:29.071Z,40.67
2019-04-04T16:53:01.605Z,39.83
2019-04-04T16:55:37.859Z,40.63
2019-04-04T16:58:13.937Z,39.13
2019-04-04T17:00:47.226Z,40.63
2019-04-04T17:03:19.716Z,38.80
2019-04-04T17:05:51.333Z,45.98
2019-04-04T17:08:25.301Z,38.42
2019-04-04T17:11:00.145Z,36.73
2019-04-04T17:13:32.260Z,39.85
2019-04-04T17:18:52.914Z,28.20
2019-04-04T17:21:24.784Z,27.98
2019-04-04T17:24:00.638Z,27.85
2019-04-04T17:26:30.623Z,26.70
2019-04-04T17:31:50.784Z,23.38
2019-04-04T17:34:24.014Z,26.10
2019-04-04T17:36:55.257Z,26.55
2019-04-04T17:39:31.902Z,25.08
2019-04-04T17:44:54.969Z,22.45
2019-04-04T17:50:18.732Z,18.65
2019-04-04T17:52:50.685Z,21.20
2019-04-04T17:58:10.615Z,20.10
2019-04-04T18:00:42.897Z,22.98
2019-04-04T18:03:19.344Z,24.90
2019-04-04T18:05:49.278Z,20.00
2019-04-04T18:11:08.835Z,18.02
2019-04-04T18:13:39.432Z,15.80
2019-04-04T18:16:11.420Z,17.92
2019-04-04T18:18:46.031Z,21.42
2019-04-04T18:21:21.064Z,17.95
2019-04-04T18:23:54.739Z,19.90
2019-04-04T18:26:29.183Z,19.95
2019-04-04T18:29:02.028Z,16.80
2019-04-04T18:31:36.242Z,20.30
2019-04-04T18:34:11.229Z,18.40
2019-04-04T18:39:40.629Z,19.92
2019-04-04T18:42:20.721Z,20.55
2019-04-04T18:44:53.173Z,21.20
2019-04-04T18:50:18.176Z,23.40
2019-04-04T18:52:51.605Z,21.95
2019-04-04T18:55:25.083Z,20.35
2019-04-04T18:57:58.770Z,20.37
2019-04-04T19:03:22.402Z,20.02
2019-04-04T19:05:54.097Z,19.40
2019-04-04T19:08:24.201Z,23.70
2019-04-04T19:10:55.970Z,22.75
2019-04-04T19:13:28.460Z,21.23
2019-04-04T19:15:58.453Z,23.00
2019-04-04T19:18:31.360Z,21.35
2019-04-04T19:26:42.912Z,24.25
2019-04-04T19:29:15.206Z,22.50
2019-04-04T19:31:48.146Z,24.05
2019-04-04T19:34:22.913Z,22.52
2019-04-04T19:36:55.117Z,23.18
2019-04-04T19:39:24.746Z,28.67
2019-04-04T19:41:55.136Z,29.23
2019-04-04T19:44:25.777Z,23.42
2019-04-04T19:46:58.027Z,27.60
2019-04-04T19:49:49.061Z,27.20
2019-04-04T19:55:16.004Z,28.10
2019-04-04T19:57:47.505Z,29.48
2019-04-04T20:00:22.197Z,31.52
2019-04-04T20:02:55.063Z,33.02
2019-04-04T20:05:28.837Z,28.83
2019-04-04T20:08:01.033Z,32.35
2019-04-04T20:10:32.494Z,30.85
2019-04-04T20:13:08.807Z,31.75
2019-04-04T20:15:41.532Z,32.73
2019-04-04T20:23:57.497Z,30.65
2019-04-04T20:26:27.769Z,29.57
2019-04-04T20:29:01.429Z,33.20
2019-04-04T20:31:34.615Z,30.27
2019-04-04T20:34:06.432Z,34.35
2019-04-04T20:36:37.617Z,30.70
2019-04-04T20:39:10.902Z,35.88
2019-04-04T20:41:44.908Z,32.40
2019-04-04T20:44:18.909Z,34.48
2019-04-04T20:46:51.032Z,36.48
2019-04-04T20:49:25.962Z,37.98
2019-04-04T20:51:56.420Z,44.42
2019-04-04T20:54:26.780Z,39.60
2019-04-04T20:56:57.979Z,37.33
2019-04-04T20:59:49.812Z,36.90
2019-04-04T21:02:25.670Z,39.63
2019-04-04T21:05:17.881Z,35.90
2019-04-04T21:07:52.128Z,38.78
2019-04-04T21:10:23.618Z,37.85
2019-04-04T21:12:57.525Z,38.40
2019-04-04T21:15:33.915Z,39.50
2019-04-04T21:18:08.337Z,33.83
2019-04-04T21:20:40.190Z,34.80
2019-04-04T21:23:20.879Z,31.70
2019-04-04T21:25:52.252Z,33.83
2019-04-04T21:28:27.242Z,33.65
2019-04-04T21:31:01.376Z,33.42
2019-04-04T21:33:33.752Z,32.03
2019-04-04T21:36:04.998Z,33.70
2019-04-04T21:38:35.923Z,30.50
2019-04-04T21:46:53.058Z,30.17
2019-04-04T21:49:34.959Z,30.12
2019-04-04T21:52:10.015Z,25.32
2019-04-04T21:54:45.435Z,28.32
2019-04-04T21:57:18.422Z,28.27
2019-04-04T22:02:39.565Z,27.20
2019-04-04T22:08:08.350Z,21.35
2019-04-04T22:10:45.840Z,24.12
2019-04-04T22:13:33.786Z,21.05
2019-04-04T22:24:29.602Z,20.68
2019-04-04T22:27:04.139Z,18.35
2019-04-04T22:32:26.865Z,18.57
2019-04-04T22:43:04.639Z,15.20
2019-04-04T22:45:36.467Z,15.30
2019-04-04T22:48:07.832Z,19.65
2019-04-04T22:50:39.264Z,17.02
2019-04-04T22:53:08.427Z,16.40
2019-04-04T22:55:41.938Z,17.70
2019-04-04T22:58:11.966Z,19.23
2019-04-04T23:00:46.832Z,19.95
2019-04-04T23:03:19.976Z,18.25
2019-04-04T23:11:14.133Z,16.35
2019-04-04T23:13:44.513Z,19.98
2019-04-04T23:16:16.290Z,16.77
2019-04-04T23:18:47.934Z,15.10
2019-04-04T23:24:06.925Z,17.70
2019-04-04T23:32:21.949Z,11.05
2019-04-04T23:34:54.016Z,13.10
2019-04-04T23:37:23.783Z,10.53
2019-04-04T23:39:54.008Z,11.40
2019-04-04T23:42:24.496Z,9.93
2019-04-04T23:45:00.758Z,10.15
2019-04-04T23:50:05.484Z,9.45
2019-04-04T23:52:38.396Z,10.55
2019-04-04T23:55:13.283Z,10.18
2019-04-04T23:57:51.655Z,9.30
